createdAt,value
2022-08-27T00:00:45.321Z,1.80
2022-08-27T00:03:48.162Z,1.60
2022-08-27T00:06:51.154Z,1.67
2022-08-27T00:09:53.988Z,2.00
2022-08-27T00:12:57.196Z,2.13
2022-08-27T00:16:00.081Z,1.70
2022-08-27T00:19:04.484Z,1.92
2022-08-27T00:22:09.219Z,2.03
2022-08-27T00:25:12.913Z,1.67
2022-08-27T00:28:15.814Z,1.88
2022-08-27T00:31:19.166Z,2.13
2022-08-27T00:34:26.532Z,1.60
2022-08-27T00:37:29.593Z,1.67
2022-08-27T00:40:33.647Z,2.40
2022-08-27T00:43:48.954Z,1.98
2022-08-27T00:46:56.440Z,1.80
2022-08-27T00:50:05.728Z,1.80
2022-08-27T00:53:19.776Z,2.15
2022-08-27T00:56:27.350Z,1.80
2022-08-27T00:59:32.833Z,2.10
2022-08-27T01:02:36.319Z,2.13
2022-08-27T01:05:39.948Z,2.10
2022-08-27T01:08:50.461Z,1.80
2022-08-27T01:11:56.047Z,1.83
2022-08-27T01:15:01.051Z,2.35
2022-08-27T01:18:06.480Z,2.10
2022-08-27T01:21:22.463Z,2.20
2022-08-27T01:24:31.712Z,1.80
2022-08-27T01:27:35.541Z,2.22
2022-08-27T01:30:40.308Z,2.30
2022-08-27T01:33:58.698Z,2.17
2022-08-27T01:37:01.578Z,2.22
2022-08-27T01:40:08.471Z,2.00
2022-08-27T01:43:12.160Z,1.85
2022-08-27T01:46:15.951Z,2.05
2022-08-27T01:49:18.736Z,2.33
2022-08-27T01:52:26.010Z,2.17
2022-08-27T01:55:28.863Z,2.40
2022-08-27T01:58:33.768Z,2.03
2022-08-27T02:04:40.409Z,2.03
2022-08-27T02:07:43.251Z,2.05
2022-08-27T02:10:48.524Z,2.55
2022-08-27T02:13:51.339Z,1.88
2022-08-27T02:16:55.058Z,2.00
2022-08-27T02:19:58.870Z,2.10
2022-08-27T02:23:02.862Z,2.35
2022-08-27T02:26:05.818Z,2.03
2022-08-27T02:29:09.044Z,2.00
2022-08-27T02:32:17.769Z,2.63
2022-08-27T02:35:33.251Z,2.20
2022-08-27T02:38:36.411Z,2.28
2022-08-27T02:41:39.462Z,2.00
2022-08-27T02:44:43.346Z,2.05
2022-08-27T02:47:47.064Z,2.00
2022-08-27T02:50:50.082Z,1.98
2022-08-27T02:53:53.773Z,2.20
2022-08-27T02:56:56.715Z,2.08
2022-08-27T02:59:59.738Z,2.08
2022-08-27T03:03:02.701Z,1.90
2022-08-27T03:06:05.834Z,2.08
2022-08-27T03:09:10.535Z,2.35
2022-08-27T03:12:13.752Z,1.85
2022-08-27T03:19:02.100Z,2.30
2022-08-27T03:22:06.581Z,1.83
2022-08-27T03:25:10.761Z,1.90
2022-08-27T03:28:23.340Z,1.83
2022-08-27T03:31:28.056Z,1.98
2022-08-27T03:34:31.214Z,2.08
2022-08-27T03:37:35.341Z,1.67
2022-08-27T03:40:38.527Z,2.00
2022-08-27T03:43:41.786Z,1.73
2022-08-27T03:46:44.943Z,1.83
2022-08-27T03:49:47.782Z,2.50
2022-08-27T03:52:51.028Z,2.50
2022-08-27T03:55:53.932Z,2.40
2022-08-27T03:58:57.064Z,2.97
2022-08-27T04:02:02.187Z,1.90
2022-08-27T04:05:06.161Z,2.42
2022-08-27T04:08:13.554Z,2.17
2022-08-27T04:11:16.935Z,2.22
2022-08-27T04:14:26.978Z,1.90
2022-08-27T04:17:32.157Z,2.40
2022-08-27T04:20:36.132Z,2.28
2022-08-27T04:23:40.790Z,2.15
2022-08-27T04:26:47.522Z,2.60
2022-08-27T04:29:54.786Z,2.20
2022-08-27T04:32:58.245Z,2.40
2022-08-27T04:36:10.620Z,2.33
2022-08-27T04:39:15.191Z,1.70
2022-08-27T04:42:20.083Z,2.05
2022-08-27T04:45:23.124Z,2.00
2022-08-27T04:48:26.474Z,2.80
2022-08-27T04:51:30.438Z,2.00
2022-08-27T04:54:34.210Z,2.13
2022-08-27T04:57:38.126Z,2.03
2022-08-27T05:00:48.825Z,2.40
2022-08-27T05:03:52.796Z,2.22
2022-08-27T05:06:56.917Z,2.22
2022-08-27T05:10:00.093Z,2.50
2022-08-27T05:13:03.753Z,2.20
2022-08-27T05:16:08.964Z,2.58
2022-08-27T05:19:16.371Z,2.47
2022-08-27T05:22:19.344Z,2.75
2022-08-27T05:25:23.684Z,2.85
2022-08-27T05:28:29.068Z,3.08
2022-08-27T05:31:33.193Z,2.35
2022-08-27T05:34:36.606Z,2.28
2022-08-27T05:37:39.800Z,2.28
2022-08-27T05:40:44.033Z,2.42
2022-08-27T05:46:54.837Z,2.30
2022-08-27T05:49:58.258Z,2.30
2022-08-27T05:53:01.186Z,2.10
2022-08-27T05:56:04.498Z,2.40
2022-08-27T05:59:27.336Z,2.55
2022-08-27T06:02:30.842Z,2.40
2022-08-27T06:05:33.867Z,2.35
2022-08-27T06:08:38.838Z,2.20
2022-08-27T06:11:41.813Z,2.08
2022-08-27T06:14:44.797Z,2.25
2022-08-27T06:17:47.773Z,2.05
2022-08-27T06:20:50.937Z,2.05
2022-08-27T06:23:54.922Z,2.05
2022-08-27T06:26:57.970Z,2.00
2022-08-27T06:30:00.961Z,2.30
2022-08-27T06:33:04.307Z,2.17
2022-08-27T06:36:10.706Z,2.47
2022-08-27T06:39:17.106Z,1.92
2022-08-27T06:42:20.811Z,2.45
2022-08-27T06:45:29.436Z,2.35
2022-08-27T06:48:32.836Z,2.60
2022-08-27T06:51:38.803Z,2.20
2022-08-27T06:54:41.597Z,2.50
2022-08-27T06:57:45.026Z,2.28
2022-08-27T07:00:49.108Z,2.45
2022-08-27T07:03:54.861Z,2.22
2022-08-27T07:07:04.424Z,2.00
2022-08-27T07:10:08.552Z,3.47
2022-08-27T07:13:11.493Z,2.63
2022-08-27T07:16:22.235Z,2.30
2022-08-27T07:19:28.491Z,1.77
2022-08-27T07:22:33.844Z,2.50
2022-08-27T07:25:36.723Z,1.90
2022-08-27T07:28:41.696Z,1.90
2022-08-27T07:31:44.684Z,1.50
2022-08-27T07:34:47.739Z,1.80
2022-08-27T07:37:51.251Z,1.40
2022-08-27T07:40:54.541Z,1.30
2022-08-27T07:44:16.310Z,1.65
2022-08-27T07:47:19.966Z,1.40
2022-08-27T07:50:24.677Z,1.75
2022-08-27T07:53:28.051Z,1.20
2022-08-27T07:56:31.214Z,1.20
2022-08-27T07:59:34.934Z,1.35
2022-08-27T08:02:39.401Z,1.50
2022-08-27T08:05:43.858Z,1.35
2022-08-27T08:08:47.049Z,1.30
2022-08-27T08:11:54.514Z,1.63
2022-08-27T08:14:58.588Z,1.50
2022-08-27T08:18:02.415Z,1.73
2022-08-27T08:21:08.611Z,1.40
2022-08-27T08:24:11.817Z,1.50
2022-08-27T08:27:14.753Z,1.50
2022-08-27T08:30:18.135Z,1.15
2022-08-27T08:33:22.111Z,1.30
2022-08-27T08:36:25.206Z,1.60
2022-08-27T08:39:28.305Z,1.45
2022-08-27T08:42:45.006Z,1.33
2022-08-27T08:45:55.944Z,1.60
2022-08-27T08:49:32.544Z,1.50
2022-08-27T08:52:35.530Z,1.30
2022-08-27T08:55:42.150Z,1.38
2022-08-27T08:58:56.174Z,1.15
2022-08-27T09:02:00.301Z,1.33
2022-08-27T09:05:05.941Z,1.65
2022-08-27T09:08:34.013Z,1.50
2022-08-27T09:11:52.600Z,1.27
2022-08-27T09:15:09.325Z,2.50
2022-08-27T09:18:17.111Z,1.77
2022-08-27T09:21:35.118Z,1.20
2022-08-27T09:25:06.425Z,1.30
2022-08-27T09:28:38.707Z,1.50
2022-08-27T09:31:47.774Z,1.25
2022-08-27T09:34:52.352Z,1.02
2022-08-27T09:37:57.755Z,1.60
2022-08-27T09:41:19.860Z,1.20
2022-08-27T09:44:23.287Z,1.30
2022-08-27T09:47:27.880Z,1.33
2022-08-27T09:56:51.119Z,1.02
2022-08-27T09:59:55.395Z,1.40
2022-08-27T10:03:00.658Z,1.23
2022-08-27T10:06:04.004Z,1.48
2022-08-27T10:09:09.914Z,1.10
2022-08-27T10:12:41.590Z,1.20
2022-08-27T10:16:15.523Z,1.35
2022-08-27T10:19:43.638Z,1.73
2022-08-27T10:23:16.640Z,1.52
2022-08-27T10:26:40.988Z,1.48
2022-08-27T10:29:56.018Z,1.33
2022-08-27T10:33:14.842Z,1.35
2022-08-27T10:36:26.856Z,1.42
2022-08-27T10:39:57.619Z,1.40
2022-08-27T10:43:41.860Z,1.27
2022-08-27T10:47:00.063Z,1.27
2022-08-27T10:50:08.775Z,1.58
2022-08-27T10:53:23.438Z,1.17
2022-08-27T11:00:06.690Z,1.20
2022-08-27T11:06:49.458Z,2.33
2022-08-27T11:10:21.080Z,2.33
2022-08-27T11:13:35.645Z,1.42
2022-08-27T11:16:49.211Z,1.52
2022-08-27T11:19:59.570Z,1.20
2022-08-27T11:23:16.878Z,1.15
2022-08-27T11:26:20.047Z,1.00
2022-08-27T11:29:32.225Z,1.30
2022-08-27T11:32:45.817Z,1.20
2022-08-27T11:36:27.275Z,0.93
2022-08-27T11:40:06.068Z,1.05
2022-08-27T11:43:18.799Z,1.13
2022-08-27T11:46:25.741Z,1.25
2022-08-27T11:49:54.878Z,1.30
2022-08-27T11:53:00.086Z,1.20
2022-08-27T11:56:40.155Z,1.02
2022-08-27T11:59:44.029Z,1.48
2022-08-27T12:03:10.744Z,1.10
2022-08-27T12:06:26.725Z,1.10
2022-08-27T12:09:42.926Z,1.20
2022-08-27T12:13:12.388Z,0.98
2022-08-27T12:16:35.405Z,0.93
2022-08-27T12:20:10.120Z,0.90
2022-08-27T12:26:38.268Z,1.08
2022-08-27T12:29:53.243Z,1.35
2022-08-27T12:32:59.885Z,0.90
2022-08-27T12:36:35.288Z,0.98
2022-08-27T12:39:43.861Z,1.30
2022-08-27T12:42:47.331Z,1.15
2022-08-27T12:46:01.733Z,1.08
2022-08-27T12:49:36.103Z,0.90
2022-08-27T12:52:56.729Z,1.03
2022-08-27T12:56:23.456Z,1.02
2022-08-27T12:59:45.403Z,0.85
2022-08-27T13:03:22.347Z,1.27
2022-08-27T13:06:37.172Z,1.50
2022-08-27T13:09:40.657Z,1.00
2022-08-27T13:12:46.327Z,0.80
2022-08-27T13:15:56.753Z,0.80
2022-08-27T13:19:00.511Z,1.13
2022-08-27T13:22:06.308Z,1.25
2022-08-27T13:25:31.595Z,1.10
2022-08-27T13:28:37.102Z,1.20
2022-08-27T13:31:41.059Z,1.10
2022-08-27T13:34:44.234Z,1.15
2022-08-27T13:37:57.754Z,1.05
2022-08-27T13:41:07.161Z,1.40
2022-08-27T13:44:20.671Z,0.98
2022-08-27T13:47:26.450Z,1.05
2022-08-27T13:50:32.538Z,0.90
2022-08-27T13:53:55.420Z,0.98
2022-08-27T13:57:10.050Z,0.80
2022-08-27T14:00:32.318Z,0.90
2022-08-27T14:03:45.857Z,0.90
2022-08-27T14:06:49.296Z,0.98
2022-08-27T14:10:02.256Z,1.45
2022-08-27T14:13:25.312Z,0.90
2022-08-27T14:16:34.505Z,1.05
2022-08-27T14:19:40.233Z,0.95
2022-08-27T14:22:44.803Z,1.20
2022-08-27T14:25:49.173Z,0.93
2022-08-27T14:28:55.016Z,0.93
2022-08-27T14:31:57.999Z,1.08
2022-08-27T14:35:01.250Z,0.90
2022-08-27T14:38:11.865Z,0.80
2022-08-27T14:41:16.709Z,1.30
2022-08-27T14:44:25.251Z,1.10
2022-08-27T14:47:32.167Z,1.17
2022-08-27T14:50:38.150Z,1.20
2022-08-27T14:53:42.784Z,1.15
2022-08-27T14:56:46.988Z,1.10
2022-08-27T14:59:53.070Z,1.02
2022-08-27T15:02:59.587Z,1.33
2022-08-27T15:06:06.848Z,1.23
2022-08-27T15:09:12.791Z,1.30
2022-08-27T15:12:26.105Z,1.60
2022-08-27T15:15:30.189Z,1.42
2022-08-27T15:18:34.281Z,1.80
2022-08-27T15:21:40.312Z,1.02
2022-08-27T15:24:56.899Z,1.17
2022-08-27T15:28:00.415Z,1.10
2022-08-27T15:31:04.090Z,1.48
2022-08-27T15:34:07.885Z,1.33
2022-08-27T15:37:11.650Z,1.35
2022-08-27T15:40:17.052Z,1.63
2022-08-27T15:43:20.800Z,2.13
2022-08-27T15:46:26.414Z,1.30
2022-08-27T15:49:30.282Z,1.00
2022-08-27T15:52:41.288Z,1.10
2022-08-27T15:55:45.723Z,1.35
2022-08-27T15:58:49.600Z,1.20
2022-08-27T16:01:53.294Z,1.45
2022-08-27T16:04:56.402Z,1.15
2022-08-27T16:07:59.600Z,1.27
2022-08-27T16:11:03.581Z,1.63
2022-08-27T16:14:08.175Z,1.48
2022-08-27T16:17:12.792Z,1.50
2022-08-27T16:20:16.747Z,1.33
2022-08-27T16:23:20.482Z,1.30
2022-08-27T16:26:23.703Z,1.20
2022-08-27T16:29:27.119Z,1.60
2022-08-27T16:32:31.580Z,1.20
2022-08-27T16:35:34.545Z,1.00
2022-08-27T16:38:38.218Z,1.10
2022-08-27T16:41:42.352Z,1.30
2022-08-27T16:48:08.572Z,1.25
2022-08-27T16:51:22.306Z,1.73
2022-08-27T16:54:27.022Z,1.50
2022-08-27T16:57:30.341Z,1.70
2022-08-27T17:00:33.446Z,1.50
2022-08-27T17:04:06.822Z,1.70
2022-08-27T17:07:06.696Z,1.52
2022-08-27T17:10:11.817Z,1.83
2022-08-27T17:13:18.694Z,1.63
2022-08-27T17:16:25.316Z,2.28
2022-08-27T17:19:28.586Z,2.05
2022-08-27T17:22:31.899Z,1.83
2022-08-27T17:25:34.897Z,1.95
2022-08-27T17:28:40.887Z,2.60
2022-08-27T17:31:44.081Z,1.85
2022-08-27T17:34:47.415Z,2.53
2022-08-27T17:37:50.277Z,2.45
2022-08-27T17:40:54.679Z,2.40
2022-08-27T20:55:09.240Z,2.47
2022-08-27T20:58:32.977Z,2.72
2022-08-27T21:01:36.398Z,2.80
2022-08-27T21:04:46.891Z,2.22
2022-08-27T21:07:51.287Z,2.72
2022-08-27T21:10:58.958Z,2.10
2022-08-27T21:14:08.235Z,2.22
2022-08-27T21:17:16.546Z,2.03
2022-08-27T21:20:20.657Z,1.90
2022-08-27T21:23:29.511Z,1.85
2022-08-27T21:26:34.546Z,2.05
2022-08-27T21:29:38.855Z,1.83
2022-08-27T21:32:42.568Z,2.20
2022-08-27T21:35:46.560Z,2.45
2022-08-27T21:38:50.366Z,2.65
2022-08-27T21:41:54.007Z,2.03
2022-08-27T21:44:57.550Z,1.92
2022-08-27T21:48:02.180Z,2.25
2022-08-27T21:51:10.890Z,2.10
2022-08-27T21:54:15.779Z,2.35
2022-08-27T21:57:20.085Z,1.60
2022-08-27T22:00:30.409Z,2.00
2022-08-27T22:03:36.233Z,1.65
2022-08-27T22:06:39.438Z,1.58
2022-08-27T22:09:42.712Z,1.67
2022-08-27T22:12:45.925Z,1.90
2022-08-27T22:15:50.379Z,1.48
2022-08-27T22:18:56.868Z,2.00
2022-08-27T22:22:00.161Z,1.90
2022-08-27T22:25:04.696Z,1.55
2022-08-27T22:28:08.019Z,1.73
2022-08-27T22:31:11.795Z,1.73
2022-08-27T22:34:15.114Z,2.25
2022-08-27T22:37:19.876Z,2.00
2022-08-27T22:40:26.397Z,1.65
2022-08-27T22:43:32.458Z,1.90
2022-08-27T22:46:36.033Z,1.63
2022-08-27T22:49:39.360Z,1.73
2022-08-27T22:52:42.671Z,1.95
2022-08-27T22:55:49.931Z,1.98
2022-08-27T22:58:53.468Z,1.60
2022-08-27T23:01:57.648Z,1.98
2022-08-27T23:05:03.580Z,1.60
2022-08-27T23:08:11.755Z,1.98
2022-08-27T23:11:16.162Z,1.80
2022-08-27T23:14:19.589Z,2.15
2022-08-27T23:17:23.961Z,1.90
2022-08-27T23:20:30.135Z,1.67
2022-08-27T23:23:34.390Z,1.55
2022-08-27T23:27:01.189Z,1.77
2022-08-27T23:30:05.187Z,2.17
2022-08-27T23:33:08.431Z,2.33
2022-08-27T23:36:11.945Z,2.50
2022-08-27T23:39:15.821Z,2.53
2022-08-27T23:42:18.863Z,2.60
2022-08-27T23:45:26.055Z,2.55
2022-08-27T23:48:29.218Z,2.90
2022-08-27T23:51:32.772Z,2.80
2022-08-27T23:54:36.579Z,2.67
2022-08-27T23:57:40.081Z,4.07
